createdAt,value
2018-09-03T00:00:42.853Z,16.70
2018-09-03T00:03:11.248Z,16.77
2018-09-03T00:05:39.540Z,16.60
2018-09-03T00:08:07.925Z,16.23
2018-09-03T00:10:36.264Z,16.20
2018-09-03T00:13:04.596Z,16.43
2018-09-03T00:15:32.901Z,18.43
2018-09-03T00:18:01.208Z,17.73
2018-09-03T00:20:29.492Z,17.80
2018-09-03T00:22:57.814Z,20.10
2018-09-03T00:25:26.088Z,23.67
2018-09-03T00:27:54.496Z,24.27
2018-09-03T00:30:22.816Z,26.40
2018-09-03T00:32:56.638Z,27.13
2018-09-03T00:35:30.365Z,22.50
2018-09-03T00:38:04.023Z,28.90
2018-09-03T00:40:37.830Z,29.60
2018-09-03T00:45:14.763Z,31.50
2018-09-03T00:47:43.128Z,36.70
2018-09-03T00:50:11.444Z,39.23
2018-09-03T00:52:39.741Z,36.77
2018-09-03T00:55:08.080Z,40.57
2018-09-03T00:57:36.393Z,39.70
2018-09-03T01:00:04.827Z,39.40
2018-09-03T01:02:33.160Z,39.40
2018-09-03T01:05:01.476Z,40.70
2018-09-03T01:07:29.776Z,40.50
2018-09-03T01:09:58.180Z,41.83
2018-09-03T01:12:26.780Z,38.83
2018-09-03T01:14:55.217Z,39.30
2018-09-03T01:17:23.545Z,37.17
2018-09-03T01:19:53.042Z,37.80
2018-09-03T01:22:21.368Z,39.33
2018-09-03T01:24:49.852Z,38.47
2018-09-03T01:27:18.405Z,40.10
2018-09-03T01:29:46.796Z,37.40
2018-09-03T01:32:15.138Z,39.90
2018-09-03T01:34:43.437Z,41.13
2018-09-03T01:37:11.737Z,36.97
2018-09-03T01:39:40.160Z,39.07
2018-09-03T01:42:08.457Z,42.80
2018-09-03T01:44:36.761Z,41.67
2018-09-03T01:47:05.125Z,40.77
2018-09-03T01:49:33.420Z,42.30
2018-09-03T01:52:01.700Z,39.50
2018-09-03T01:54:30.407Z,41.13
2018-09-03T01:56:58.954Z,42.33
2018-09-03T01:59:27.232Z,38.90
2018-09-03T02:01:55.650Z,40.77
2018-09-03T02:04:24.032Z,38.33
2018-09-03T02:06:52.542Z,37.90
2018-09-03T02:09:20.865Z,38.07
2018-09-03T02:11:49.365Z,36.97
2018-09-03T02:14:17.650Z,36.13
2018-09-03T02:16:46.212Z,36.70
2018-09-03T02:19:14.517Z,36.50
2018-09-03T02:21:42.856Z,38.97
2018-09-03T02:24:11.168Z,39.73
2018-09-03T02:26:39.464Z,38.60
2018-09-03T02:29:07.800Z,36.53
2018-09-03T02:31:36.125Z,40.77
2018-09-03T02:34:04.440Z,39.33
2018-09-03T02:36:32.780Z,36.60
2018-09-03T02:39:01.378Z,36.40
2018-09-03T02:41:29.673Z,37.33
2018-09-03T02:43:58.117Z,38.43
2018-09-03T02:46:26.457Z,38.37
2018-09-03T02:48:54.858Z,36.23
2018-09-03T02:51:23.148Z,39.97
2018-09-03T02:53:51.646Z,36.77
2018-09-03T02:56:19.974Z,36.20
2018-09-03T02:58:48.673Z,36.37
2018-09-03T03:01:17.148Z,35.00
2018-09-03T03:03:45.464Z,33.77
2018-09-03T03:06:13.752Z,35.93
2018-09-03T03:08:43.272Z,35.43
2018-09-03T03:11:11.572Z,32.87
2018-09-03T03:13:39.852Z,35.30
2018-09-03T03:16:08.255Z,32.80
2018-09-03T03:18:36.605Z,34.23
2018-09-03T03:21:04.990Z,33.20
2018-09-03T03:23:33.455Z,31.30
2018-09-03T03:26:01.760Z,34.60
2018-09-03T03:28:30.049Z,34.07
2018-09-03T03:30:58.383Z,30.97
2018-09-03T03:33:26.692Z,34.23
2018-09-03T03:35:55.084Z,32.20
2018-09-03T03:38:23.416Z,31.53
2018-09-03T03:40:51.747Z,31.37
2018-09-03T03:43:20.057Z,32.37
2018-09-03T03:45:48.472Z,32.77
2018-09-03T03:48:16.773Z,30.73
2018-09-03T03:50:45.081Z,32.80
2018-09-03T03:53:13.400Z,32.30
2018-09-03T03:55:41.708Z,30.77
2018-09-03T03:58:09.984Z,30.80
2018-09-03T04:00:38.348Z,33.27
2018-09-03T04:03:06.716Z,34.23
2018-09-03T04:05:35.014Z,33.50
2018-09-03T04:08:03.344Z,34.97
2018-09-03T04:10:31.636Z,35.87
2018-09-03T04:13:06.449Z,34.63
2018-09-03T04:15:35.573Z,33.50
2018-09-03T04:18:04.184Z,32.13
2018-09-03T04:20:32.501Z,32.43
2018-09-03T04:23:00.951Z,30.57
2018-09-03T04:25:29.536Z,32.63
2018-09-03T04:27:57.968Z,32.87
2018-09-03T04:30:26.276Z,30.73
2018-09-03T04:32:55.196Z,30.33
2018-09-03T04:35:23.525Z,30.37
2018-09-03T04:37:51.857Z,31.57
2018-09-03T04:40:20.225Z,30.10
2018-09-03T04:42:48.560Z,32.07
2018-09-03T04:45:16.856Z,29.17
2018-09-03T04:47:45.148Z,29.97
2018-09-03T04:50:13.817Z,30.97
2018-09-03T04:52:42.100Z,30.70
2018-09-03T04:55:10.383Z,29.63
2018-09-03T04:57:38.965Z,29.47
2018-09-03T05:00:07.566Z,31.77
2018-09-03T05:02:35.858Z,29.67
2018-09-03T05:05:04.229Z,28.20
2018-09-03T05:07:32.498Z,29.40
2018-09-03T05:10:00.860Z,30.07
2018-09-03T05:12:29.168Z,25.23
2018-09-03T05:14:57.732Z,25.73
2018-09-03T05:17:26.121Z,26.10
2018-09-03T05:19:54.545Z,25.67
2018-09-03T05:22:22.832Z,26.23
2018-09-03T05:24:51.137Z,27.23
2018-09-03T05:27:19.438Z,24.47
2018-09-03T05:29:47.744Z,26.17
2018-09-03T05:32:16.081Z,26.50
2018-09-03T05:34:44.468Z,23.70
2018-09-03T05:37:12.756Z,23.13
2018-09-03T05:39:41.057Z,18.60
2018-09-03T05:42:09.359Z,16.70
2018-09-03T05:44:37.648Z,15.87
2018-09-03T05:47:06.571Z,17.07
2018-09-03T05:49:35.953Z,16.23
2018-09-03T05:52:04.353Z,16.00
2018-09-03T05:54:32.649Z,17.97
2018-09-03T05:57:02.008Z,17.13
2018-09-03T05:59:30.288Z,15.97
2018-09-03T06:01:58.990Z,17.13
2018-09-03T06:04:27.407Z,15.97
2018-09-03T06:06:55.847Z,13.17
2018-09-03T06:09:24.136Z,11.77
2018-09-03T06:11:52.553Z,12.43
2018-09-03T06:14:20.841Z,12.27
2018-09-03T06:16:49.133Z,12.10
2018-09-03T06:19:17.432Z,12.43
2018-09-03T06:21:45.725Z,11.37
2018-09-03T06:24:14.172Z,11.07
2018-09-03T06:26:42.522Z,10.47
2018-09-03T06:29:10.845Z,11.70
2018-09-03T06:31:39.125Z,11.10
2018-09-03T06:34:07.441Z,11.93
2018-09-03T06:36:36.020Z,10.43
2018-09-03T06:39:05.611Z,11.27
2018-09-03T06:41:33.972Z,10.70
2018-09-03T06:44:02.392Z,10.67
2018-09-03T06:46:30.809Z,10.93
2018-09-03T06:48:59.292Z,9.80
2018-09-03T06:51:27.587Z,8.60
2018-09-03T06:53:55.964Z,8.97
2018-09-03T06:56:24.264Z,8.47
2018-09-03T06:58:52.599Z,8.23
2018-09-03T07:01:20.956Z,8.90
2018-09-03T07:03:50.085Z,9.57
2018-09-03T07:06:18.383Z,9.43
2018-09-03T07:08:46.703Z,9.40
2018-09-03T07:11:15.075Z,9.50
2018-09-03T07:13:43.396Z,8.30
2018-09-03T07:16:11.682Z,7.63
2018-09-03T07:18:40.061Z,7.53
2018-09-03T07:21:08.344Z,7.80
2018-09-03T07:23:36.624Z,7.07
2018-09-03T07:26:05.008Z,6.73
2018-09-03T07:28:33.309Z,6.77
2018-09-03T07:31:01.686Z,6.20
2018-09-03T07:33:29.955Z,6.30
2018-09-03T07:35:58.372Z,7.77
2018-09-03T07:38:26.773Z,7.97
2018-09-03T07:40:55.061Z,6.90
2018-09-03T07:43:23.385Z,7.93
2018-09-03T07:45:51.660Z,7.70
2018-09-03T07:48:19.938Z,7.50
2018-09-03T07:50:48.244Z,8.00
2018-09-03T07:53:16.516Z,8.13
2018-09-03T07:55:44.795Z,8.10
2018-09-03T07:58:13.092Z,8.03
2018-09-03T08:00:41.395Z,8.13
2018-09-03T08:03:09.688Z,7.97
2018-09-03T08:05:38.024Z,7.97
2018-09-03T08:08:06.572Z,8.73
2018-09-03T08:10:35.125Z,8.77
2018-09-03T08:13:03.504Z,9.17
2018-09-03T08:15:31.821Z,10.90
2018-09-03T08:18:00.104Z,11.13
2018-09-03T08:20:28.446Z,10.27
2018-09-03T08:22:56.752Z,10.00
2018-09-03T08:25:25.048Z,10.47
2018-09-03T08:27:53.344Z,10.07
2018-09-03T08:30:21.665Z,10.57
2018-09-03T08:32:49.934Z,10.23
2018-09-03T08:35:18.266Z,10.60
2018-09-03T08:37:46.542Z,9.97
2018-09-03T08:40:14.857Z,10.47
2018-09-03T08:42:43.303Z,11.40
2018-09-03T08:45:11.625Z,11.13
2018-09-03T08:47:40.061Z,12.10
2018-09-03T08:50:08.408Z,11.97
2018-09-03T08:52:36.698Z,13.53
2018-09-03T08:55:05.037Z,12.43
2018-09-03T08:57:33.361Z,12.43
2018-09-03T09:00:01.696Z,11.43
2018-09-03T09:02:29.991Z,12.30
2018-09-03T09:04:58.317Z,13.07
2018-09-03T09:07:26.620Z,13.43
2018-09-03T09:09:54.952Z,14.47
2018-09-03T09:12:23.260Z,13.23
2018-09-03T09:14:51.549Z,12.93
2018-09-03T09:17:19.832Z,13.40
2018-09-03T09:19:48.167Z,14.00
2018-09-03T09:22:16.464Z,13.50
2018-09-03T09:24:44.741Z,14.00
2018-09-03T09:27:13.074Z,14.37
2018-09-03T09:29:41.472Z,14.37
2018-09-03T09:32:09.825Z,14.33
2018-09-03T09:34:38.133Z,15.73
2018-09-03T09:37:06.449Z,15.17
2018-09-03T09:39:34.745Z,15.47
2018-09-03T09:42:03.687Z,14.97
2018-09-03T09:44:31.969Z,17.30
2018-09-03T09:47:00.269Z,16.47
2018-09-03T09:49:28.589Z,18.03
2018-09-03T09:51:56.881Z,17.93
2018-09-03T09:54:25.177Z,18.00
2018-09-03T09:56:53.736Z,20.37
2018-09-03T09:59:22.061Z,21.20
2018-09-03T10:01:50.348Z,22.70
2018-09-03T10:04:18.747Z,20.70
2018-09-03T10:06:47.000Z,21.67
2018-09-03T10:09:15.296Z,21.50
2018-09-03T10:11:43.632Z,22.57
2018-09-03T10:14:11.920Z,23.20
2018-09-03T10:16:40.210Z,24.40
2018-09-03T10:19:08.526Z,24.03
2018-09-03T10:21:36.824Z,25.53
2018-09-03T10:24:05.213Z,26.33
2018-09-03T10:26:33.514Z,28.30
2018-09-03T10:29:01.849Z,27.17
2018-09-03T10:31:30.154Z,28.77
2018-09-03T10:33:58.491Z,28.37
2018-09-03T10:36:26.793Z,29.17
2018-09-03T10:38:55.082Z,29.07
2018-09-03T10:41:23.580Z,28.60
2018-09-03T10:43:51.869Z,27.27
2018-09-03T10:46:20.266Z,29.13
2018-09-03T10:48:48.652Z,28.40
2018-09-03T10:51:17.002Z,29.57
2018-09-03T10:53:45.305Z,27.90
2018-09-03T10:56:13.699Z,28.60
2018-09-03T10:58:41.932Z,28.47
2018-09-03T11:01:10.281Z,29.87
2018-09-03T11:03:38.608Z,29.73
2018-09-03T11:06:06.897Z,30.43
2018-09-03T11:08:35.184Z,30.20
2018-09-03T11:11:03.589Z,28.47
2018-09-03T11:13:31.893Z,29.00
2018-09-03T11:16:00.213Z,26.53
2018-09-03T11:18:29.923Z,26.90
2018-09-03T11:20:58.298Z,24.70
2018-09-03T11:23:26.534Z,26.17
2018-09-03T11:25:54.872Z,26.33
2018-09-03T11:28:23.180Z,25.20
2018-09-03T11:30:51.593Z,25.97
2018-09-03T11:33:19.903Z,25.10
2018-09-03T11:35:48.213Z,24.67
2018-09-03T11:38:16.613Z,24.90
2018-09-03T11:40:45.322Z,24.80
2018-09-03T11:43:13.692Z,24.70
2018-09-03T11:45:41.990Z,24.57
2018-09-03T11:48:10.306Z,23.70
2018-09-03T11:50:38.588Z,56.60
2018-09-03T11:53:06.915Z,24.93
2018-09-03T11:55:35.252Z,23.90
2018-09-03T11:58:03.625Z,23.23
2018-09-03T12:00:32.017Z,22.60
2018-09-03T12:03:01.091Z,21.87
2018-09-03T12:05:29.912Z,20.13
2018-09-03T12:07:58.267Z,21.40
2018-09-03T12:10:26.589Z,21.00
2018-09-03T12:12:54.893Z,20.30
2018-09-03T12:15:31.644Z,18.23
2018-09-03T12:17:59.936Z,21.53
2018-09-03T12:20:28.234Z,23.03
2018-09-03T12:22:56.541Z,20.60
2018-09-03T12:25:24.836Z,20.97
2018-09-03T12:27:53.136Z,20.57
2018-09-03T12:30:21.574Z,19.53
2018-09-03T12:32:49.868Z,18.73
2018-09-03T12:35:18.152Z,19.77
2018-09-03T12:37:46.517Z,19.10
2018-09-03T12:40:14.836Z,18.97
2018-09-03T12:42:43.212Z,17.57
2018-09-03T12:45:11.748Z,18.13
2018-09-03T12:47:40.121Z,16.60
2018-09-03T12:50:08.436Z,19.23
2018-09-03T12:52:36.817Z,18.30
2018-09-03T12:55:05.412Z,18.53
2018-09-03T12:57:33.697Z,19.00
2018-09-03T13:00:05.131Z,19.30
2018-09-03T13:02:30.375Z,19.20
2018-09-03T13:04:58.708Z,17.50
2018-09-03T13:07:27.190Z,18.80
2018-09-03T13:09:55.492Z,20.00
2018-09-03T13:12:23.799Z,19.23
2018-09-03T13:14:52.133Z,18.60
2018-09-03T13:17:20.451Z,19.03
2018-09-03T13:19:48.797Z,18.93
2018-09-03T13:22:17.166Z,18.40
2018-09-03T13:24:45.502Z,18.23
2018-09-03T13:27:13.883Z,17.37
2018-09-03T13:29:42.212Z,18.03
2018-09-03T13:32:10.517Z,20.00
2018-09-03T13:34:38.821Z,159.83
2018-09-03T13:37:07.186Z,20.80
2018-09-03T13:39:35.460Z,19.10
2018-09-03T13:42:03.888Z,21.00
2018-09-03T13:44:32.178Z,20.13
2018-09-03T13:47:00.480Z,20.70
2018-09-03T13:49:28.773Z,20.87
2018-09-03T13:51:57.089Z,19.50
2018-09-03T13:54:25.410Z,19.83
2018-09-03T13:56:53.704Z,19.23
2018-09-03T13:59:22.068Z,19.07
2018-09-03T14:01:50.378Z,18.83
2018-09-03T14:04:18.678Z,17.30
2018-09-03T14:06:47.060Z,20.70
2018-09-03T14:09:15.373Z,19.33
2018-09-03T14:11:43.697Z,18.87
2018-09-03T14:14:12.333Z,20.47
2018-09-03T14:16:40.640Z,20.23
2018-09-03T14:19:08.984Z,21.20
2018-09-03T14:21:37.334Z,20.97
2018-09-03T14:24:05.666Z,19.13
2018-09-03T14:26:33.969Z,22.43
2018-09-03T14:29:02.352Z,22.03
2018-09-03T14:31:30.657Z,20.27
2018-09-03T14:33:58.954Z,21.60
2018-09-03T14:36:27.322Z,20.50
2018-09-03T14:38:55.624Z,19.13
2018-09-03T14:41:24.001Z,105.87
2018-09-03T14:43:52.360Z,20.87
2018-09-03T14:46:20.649Z,20.90
2018-09-03T14:48:48.932Z,23.17
2018-09-03T14:51:17.245Z,22.37
2018-09-03T14:53:45.538Z,21.83
2018-09-03T14:56:13.900Z,22.40
2018-09-03T14:58:42.178Z,22.80
2018-09-03T15:01:10.497Z,23.57
2018-09-03T15:03:38.792Z,22.13
2018-09-03T15:06:07.332Z,21.97
2018-09-03T15:08:35.644Z,22.63
2018-09-03T15:11:03.938Z,21.73
2018-09-03T15:13:32.325Z,21.50
2018-09-03T15:16:00.728Z,20.73
2018-09-03T15:18:29.053Z,21.20
2018-09-03T15:20:57.392Z,22.53
2018-09-03T15:23:25.828Z,21.63
2018-09-03T15:25:54.101Z,21.60
2018-09-03T15:28:22.428Z,22.77
2018-09-03T15:30:50.776Z,21.97
2018-09-03T15:33:19.131Z,21.73
2018-09-03T15:35:47.477Z,21.80
2018-09-03T15:38:15.892Z,20.27
2018-09-03T15:40:44.261Z,20.57
2018-09-03T15:43:12.814Z,21.17
2018-09-03T15:45:41.146Z,22.27
2018-09-03T15:48:09.497Z,20.93
2018-09-03T15:50:37.819Z,23.47
2018-09-03T15:53:06.112Z,22.27
2018-09-03T15:55:34.441Z,23.07
2018-09-03T15:58:02.743Z,24.23
2018-09-03T16:00:31.025Z,21.63
2018-09-03T16:02:59.362Z,21.57
2018-09-03T16:05:27.613Z,22.07
2018-09-03T16:07:55.917Z,22.37
2018-09-03T16:10:24.318Z,26.03
2018-09-03T16:12:52.645Z,21.77
2018-09-03T16:15:21.166Z,25.70
2018-09-03T16:17:49.497Z,20.27
2018-09-03T16:20:18.016Z,21.23
2018-09-03T16:22:46.400Z,20.17
2018-09-03T16:25:14.938Z,21.43
2018-09-03T16:27:43.292Z,20.70
2018-09-03T16:30:11.751Z,21.97
2018-09-03T16:32:40.137Z,20.70
2018-09-03T16:35:08.557Z,20.20
2018-09-03T16:37:36.884Z,22.73
2018-09-03T16:40:05.598Z,22.60
2018-09-03T16:42:34.103Z,23.27
2018-09-03T16:45:02.392Z,21.27
2018-09-03T16:47:30.715Z,22.00
2018-09-03T16:49:59.044Z,22.57
2018-09-03T16:52:27.333Z,22.83
2018-09-03T16:54:55.650Z,23.70
2018-09-03T16:57:23.984Z,22.40
2018-09-03T16:59:52.286Z,22.10
2018-09-03T17:02:20.624Z,21.87
2018-09-03T17:04:49.072Z,22.90
2018-09-03T17:07:17.725Z,23.53
2018-09-03T17:09:46.028Z,21.80
2018-09-03T17:12:14.535Z,22.53
2018-09-03T17:14:42.948Z,22.60
2018-09-03T17:17:11.308Z,23.60
2018-09-03T17:19:39.630Z,23.83
2018-09-03T17:22:07.965Z,24.57
2018-09-03T17:24:36.301Z,24.50
2018-09-03T17:27:04.648Z,23.47
2018-09-03T17:29:33.021Z,22.33
2018-09-03T17:32:01.354Z,25.17
2018-09-03T17:34:29.659Z,24.00
2018-09-03T17:36:58.072Z,24.93
2018-09-03T17:39:26.403Z,24.13
2018-09-03T17:41:54.732Z,26.53
2018-09-03T17:44:23.172Z,25.63
2018-09-03T17:46:51.465Z,27.57
2018-09-03T17:49:19.885Z,28.33
2018-09-03T17:51:48.173Z,28.73
2018-09-03T17:54:16.599Z,28.20
2018-09-03T17:56:45.014Z,31.83
2018-09-03T17:59:13.373Z,29.33
2018-09-03T18:01:41.669Z,29.37
2018-09-03T18:04:10.276Z,29.30
2018-09-03T18:06:38.595Z,30.57
2018-09-03T18:09:07.349Z,29.13
2018-09-03T18:11:35.781Z,29.93
2018-09-03T18:14:04.193Z,30.93
2018-09-03T18:16:32.520Z,32.30
2018-09-03T18:19:00.812Z,30.57
2018-09-03T18:21:29.161Z,30.27
2018-09-03T18:23:57.570Z,30.20
2018-09-03T18:26:25.900Z,32.00
2018-09-03T18:28:54.213Z,39.10
2018-09-03T18:31:22.536Z,31.43
2018-09-03T18:33:50.912Z,32.43
2018-09-03T18:36:19.308Z,32.43
2018-09-03T18:38:47.605Z,32.73
2018-09-03T18:41:16.025Z,31.83
2018-09-03T18:43:44.313Z,31.10
2018-09-03T18:46:12.625Z,33.60
2018-09-03T18:48:40.956Z,32.27
2018-09-03T18:51:09.302Z,34.83
2018-09-03T18:53:37.681Z,34.80
2018-09-03T18:56:06.084Z,37.27
2018-09-03T18:58:34.543Z,41.67
2018-09-03T19:01:02.905Z,35.60
2018-09-03T19:03:31.593Z,36.20
2018-09-03T19:05:59.925Z,38.20
2018-09-03T19:08:28.248Z,37.30
2018-09-03T19:10:56.616Z,36.57
2018-09-03T19:13:25.050Z,37.67
2018-09-03T19:15:53.340Z,37.87
2018-09-03T19:18:21.801Z,33.73
2018-09-03T19:20:50.164Z,36.17
2018-09-03T19:23:18.747Z,37.57
2018-09-03T19:25:47.176Z,33.93
2018-09-03T19:28:15.560Z,36.67
2018-09-03T19:30:43.869Z,38.47
2018-09-03T19:33:12.189Z,39.47
2018-09-03T19:35:40.589Z,45.33
2018-09-03T19:38:08.871Z,42.50
2018-09-03T19:40:37.180Z,44.70
2018-09-03T19:43:05.477Z,44.87
2018-09-03T19:45:33.776Z,48.93
2018-09-03T19:48:02.079Z,47.10
2018-09-03T19:50:30.469Z,45.60
2018-09-03T19:52:58.849Z,46.77
2018-09-03T19:55:27.256Z,46.10
2018-09-03T19:57:55.540Z,47.70
2018-09-03T20:00:24.081Z,49.07
2018-09-03T20:02:52.409Z,46.73
2018-09-03T20:05:20.897Z,49.87
2018-09-03T20:07:49.228Z,42.83
2018-09-03T20:10:17.770Z,46.30
2018-09-03T20:12:46.069Z,43.47
2018-09-03T20:15:18.712Z,44.40
2018-09-03T20:17:47.028Z,45.03
2018-09-03T20:20:15.693Z,47.97
2018-09-03T20:22:44.073Z,51.67
2018-09-03T20:25:12.320Z,49.77
2018-09-03T20:27:40.669Z,45.83
2018-09-03T20:30:09.060Z,42.57
2018-09-03T20:32:37.357Z,41.97
2018-09-03T20:35:05.709Z,49.97
2018-09-03T20:37:34.049Z,46.40
2018-09-03T20:40:02.339Z,44.13
2018-09-03T20:42:30.621Z,46.57
2018-09-03T20:44:58.931Z,43.20
2018-09-03T20:47:27.380Z,34.93
2018-09-03T20:49:55.656Z,36.70
2018-09-03T20:52:24.034Z,42.00
2018-09-03T20:54:52.443Z,29.03
2018-09-03T20:57:20.861Z,25.73
2018-09-03T20:59:49.176Z,24.53
2018-09-03T21:02:17.590Z,23.10
2018-09-03T21:04:45.924Z,27.77
2018-09-03T21:07:14.704Z,38.27
2018-09-03T21:09:43.009Z,27.63
2018-09-03T21:12:11.328Z,27.17
2018-09-03T21:14:39.765Z,28.73
2018-09-03T21:17:07.957Z,27.90
2018-09-03T21:19:36.250Z,27.83
2018-09-03T21:22:04.585Z,26.30
2018-09-03T21:24:32.866Z,24.70
2018-09-03T21:27:01.160Z,25.10
2018-09-03T21:29:38.740Z,23.57
2018-09-03T21:32:07.312Z,30.73
2018-09-03T21:34:35.600Z,34.13
2018-09-03T21:37:03.941Z,34.53
2018-09-03T21:39:32.233Z,35.67
2018-09-03T21:42:00.596Z,35.10
2018-09-03T21:44:29.248Z,37.47
2018-09-03T21:46:57.545Z,34.20
2018-09-03T21:49:26.029Z,36.50
2018-09-03T21:51:54.344Z,36.87
2018-09-03T21:54:22.886Z,35.13
2018-09-03T21:56:51.167Z,35.87
2018-09-03T21:59:19.701Z,37.63
2018-09-03T22:01:48.022Z,38.80
2018-09-03T22:04:16.329Z,38.73
2018-09-03T22:06:44.639Z,37.13
2018-09-03T22:09:12.926Z,37.53
2018-09-03T22:11:41.225Z,37.23
2018-09-03T22:14:09.534Z,38.23
2018-09-03T22:16:37.888Z,42.40
2018-09-03T22:19:06.188Z,39.13
2018-09-03T22:21:34.531Z,42.73
2018-09-03T22:24:02.808Z,41.57
2018-09-03T22:26:31.324Z,36.87
2018-09-03T22:28:59.628Z,41.90
2018-09-03T22:31:28.121Z,34.83
2018-09-03T22:33:56.405Z,37.30
2018-09-03T22:36:24.840Z,37.90
2018-09-03T22:38:53.133Z,39.57
2018-09-03T22:41:21.844Z,36.20
2018-09-03T22:43:50.172Z,38.17
2018-09-03T22:46:18.471Z,36.67
2018-09-03T22:48:46.772Z,39.57
2018-09-03T22:51:15.093Z,42.63
2018-09-03T22:53:43.376Z,44.63
2018-09-03T22:56:11.668Z,39.57
2018-09-03T22:58:39.984Z,42.53
2018-09-03T23:01:08.306Z,39.97
2018-09-03T23:03:36.596Z,39.50
2018-09-03T23:06:04.936Z,40.43
2018-09-03T23:08:33.352Z,42.03
2018-09-03T23:11:01.658Z,42.07
2018-09-03T23:13:30.345Z,39.70
2018-09-03T23:15:58.629Z,42.67
2018-09-03T23:18:27.113Z,42.90
2018-09-03T23:20:55.452Z,41.80
2018-09-03T23:23:23.795Z,43.33
2018-09-03T23:25:52.089Z,41.03
2018-09-03T23:28:20.398Z,40.77
2018-09-03T23:30:48.676Z,39.03
2018-09-03T23:33:16.957Z,38.83
2018-09-03T23:35:45.284Z,38.03
2018-09-03T23:38:13.581Z,38.80
2018-09-03T23:40:41.872Z,37.70
2018-09-03T23:43:10.468Z,38.03
2018-09-03T23:45:38.792Z,38.50
2018-09-03T23:48:07.106Z,36.97
2018-09-03T23:50:35.452Z,37.07
2018-09-03T23:53:03.759Z,37.13
2018-09-03T23:55:32.172Z,37.40
2018-09-03T23:58:00.508Z,41.23
